Divnoe, Russia
Current Conditions -  °F | °C
As of 8:00 PM on Thursday 27 Nov 2014 (Local Time) from URWI Reporting Station
Overcast Overcast  
Wind Chill:   Ceiling: 11000
Heat Index: 19°   Visibility: 6mi
Dew Point: 18°   Wind: 9mph
Humidity: 93%   Direction: 90°E
Pressure: 30.33"   Gusts: NA
Location:  45.92°N, 43.35°E
Report Text: URWI 271700Z 09004MPS 9999 SCT008 OVC110 M07/M08 Q1027 NOSIG
Loading
Personal Weather Stations






























Interactive Weather Map New forecast layout! Learn more

10-Day Weather Forecast

Advertisements
Track Severe Weather on mobile